createdAt,value
2018-06-16T00:00:05.820Z,66.10
2018-06-16T00:01:13.181Z,65.70
2018-06-16T00:02:08.237Z,65.60
2018-06-16T00:03:05.792Z,65.60
2018-06-16T00:04:08.252Z,65.60
2018-06-16T00:05:05.767Z,65.60
2018-06-16T00:06:11.411Z,65.60
2018-06-16T00:07:06.281Z,65.50
2018-06-16T00:08:05.872Z,65.60
2018-06-16T00:09:10.742Z,65.60
2018-06-16T00:10:08.838Z,65.60
2018-06-16T00:11:09.023Z,65.60
2018-06-16T00:12:08.207Z,65.60
2018-06-16T00:13:08.217Z,65.70
2018-06-16T00:14:06.329Z,65.70
2018-06-16T00:15:11.029Z,65.80
2018-06-16T00:16:06.690Z,65.80
2018-06-16T00:17:06.600Z,66.00
2018-06-16T00:18:06.279Z,66.10
2018-06-16T00:19:13.662Z,65.80
2018-06-16T00:20:08.730Z,65.80
2018-06-16T00:21:06.928Z,65.80
2018-06-16T00:22:11.556Z,65.60
2018-06-16T00:23:05.490Z,65.60
2018-06-16T00:24:06.269Z,65.50
2018-06-16T00:25:06.028Z,65.50
2018-06-16T00:26:05.889Z,65.50
2018-06-16T00:27:13.396Z,66.00
2018-06-16T00:28:06.149Z,66.00
2018-06-16T00:29:06.763Z,65.80
2018-06-16T00:30:06.476Z,65.90
2018-06-16T00:31:06.256Z,66.00
2018-06-16T00:32:08.233Z,65.80
2018-06-16T00:33:05.692Z,65.90
2018-06-16T00:34:06.536Z,65.80
2018-06-16T00:35:06.114Z,65.90
2018-06-16T00:36:06.011Z,66.00
2018-06-16T00:37:05.811Z,65.90
2018-06-16T00:38:05.848Z,65.80
2018-06-16T00:39:06.858Z,65.80
2018-06-16T00:40:08.968Z,66.00
2018-06-16T00:41:06.342Z,66.00
2018-06-16T00:42:08.504Z,66.30
2018-06-16T00:43:05.734Z,66.30
2018-06-16T00:44:11.370Z,66.40
2018-06-16T00:45:06.685Z,66.50
2018-06-16T00:46:06.064Z,66.60
2018-06-16T00:47:06.743Z,66.60
2018-06-16T00:48:05.961Z,66.60
2018-06-16T00:49:05.806Z,66.50
2018-06-16T00:50:06.391Z,66.50
2018-06-16T00:51:06.071Z,66.50
2018-06-16T00:52:05.448Z,66.60
2018-06-16T00:53:08.596Z,66.90
2018-06-16T00:54:06.174Z,66.80
2018-06-16T00:55:10.760Z,67.00
2018-06-16T00:56:10.720Z,67.40
2018-06-16T00:57:06.292Z,67.50
2018-06-16T00:58:10.689Z,67.50
2018-06-16T00:59:06.276Z,67.40
2018-06-16T01:00:10.878Z,67.50
2018-06-16T01:01:06.714Z,67.70
2018-06-16T01:02:06.431Z,68.00
2018-06-16T01:03:06.049Z,68.00
2018-06-16T01:04:10.694Z,67.90
2018-06-16T01:05:11.187Z,68.00
2018-06-16T01:06:06.562Z,68.00
2018-06-16T01:07:06.354Z,68.00
2018-06-16T01:08:06.223Z,68.00
2018-06-16T01:09:05.545Z,68.20
2018-06-16T01:10:05.640Z,68.10
2018-06-16T01:11:10.638Z,68.10
2018-06-16T01:12:08.230Z,68.20
2018-06-16T01:13:06.651Z,68.20
2018-06-16T01:14:08.846Z,68.20
2018-06-16T01:15:11.453Z,68.20
2018-06-16T01:16:08.901Z,68.20
2018-06-16T01:17:07.016Z,68.10
2018-06-16T01:18:08.521Z,68.10
2018-06-16T01:19:08.386Z,68.30
2018-06-16T01:20:05.943Z,68.30
2018-06-16T01:21:05.889Z,68.30
2018-06-16T01:22:05.717Z,68.30
2018-06-16T01:23:06.474Z,68.20
2018-06-16T01:24:08.717Z,68.40
2018-06-16T01:25:06.273Z,68.50
2018-06-16T01:26:06.304Z,68.50
2018-06-16T01:27:06.036Z,68.50
2018-06-16T01:28:06.358Z,68.50
2018-06-16T01:29:06.809Z,68.60
2018-06-16T01:30:06.264Z,68.70
2018-06-16T01:31:06.493Z,68.60
2018-06-16T01:32:07.161Z,68.60
2018-06-16T01:33:05.719Z,68.50
2018-06-16T01:34:08.081Z,69.10
2018-06-16T01:35:10.702Z,69.20
2018-06-16T01:36:05.629Z,69.10
2018-06-16T01:37:16.236Z,69.00
2018-06-16T01:38:06.584Z,68.90
2018-06-16T01:39:11.517Z,68.90
2018-06-16T01:40:08.598Z,69.00
2018-06-16T01:41:12.418Z,69.00
2018-06-16T01:42:05.899Z,69.10
2018-06-16T01:43:10.606Z,69.10
2018-06-16T01:44:06.304Z,69.00
2018-06-16T01:45:06.483Z,69.10
2018-06-16T01:46:07.148Z,69.40
2018-06-16T01:47:05.666Z,69.40
2018-06-16T01:48:06.325Z,69.40
2018-06-16T01:49:05.895Z,69.40
2018-06-16T01:50:06.003Z,69.40
2018-06-16T01:51:05.848Z,69.50
2018-06-16T01:52:11.486Z,69.50
2018-06-16T01:53:06.421Z,69.40
2018-06-16T01:54:11.070Z,69.40
2018-06-16T01:55:05.532Z,69.60
2018-06-16T01:56:06.633Z,69.60
2018-06-16T01:57:06.388Z,69.70
2018-06-16T01:58:05.876Z,69.80
2018-06-16T01:59:05.725Z,69.70
2018-06-16T02:00:11.434Z,69.70
2018-06-16T02:01:08.290Z,69.80
2018-06-16T02:02:08.358Z,69.70
2018-06-16T02:03:06.137Z,69.60
2018-06-16T02:04:10.830Z,69.70
2018-06-16T02:05:06.833Z,69.70
2018-06-16T02:06:07.976Z,69.80
2018-06-16T02:07:11.541Z,69.80
2018-06-16T02:08:05.967Z,70.10
2018-06-16T02:09:05.886Z,70.20
2018-06-16T02:10:06.004Z,70.50
2018-06-16T02:11:08.066Z,70.70
2018-06-16T02:12:06.107Z,70.70
2018-06-16T02:13:11.483Z,70.90
2018-06-16T02:14:08.542Z,70.90
2018-06-16T02:15:11.069Z,70.90
2018-06-16T02:16:06.307Z,70.90
2018-06-16T02:17:08.509Z,71.10
2018-06-16T02:18:08.580Z,71.00
2018-06-16T02:19:08.605Z,71.20
2018-06-16T02:20:06.034Z,71.20
2018-06-16T02:21:08.581Z,71.90
2018-06-16T02:22:06.350Z,71.90
2018-06-16T02:23:06.349Z,71.80
2018-06-16T02:24:05.840Z,71.70
2018-06-16T02:25:05.620Z,71.50
2018-06-16T02:26:10.690Z,71.60
2018-06-16T02:27:08.893Z,71.60
2018-06-16T02:28:07.956Z,71.70
2018-06-16T02:29:08.372Z,71.70
2018-06-16T02:30:06.077Z,71.70
2018-06-16T02:31:10.757Z,71.80
2018-06-16T02:32:06.208Z,71.80
2018-06-16T02:33:06.155Z,72.00
2018-06-16T02:34:05.976Z,72.00
2018-06-16T02:35:08.195Z,71.90
2018-06-16T02:36:08.232Z,72.00
2018-06-16T02:37:10.762Z,72.00
2018-06-16T02:38:06.642Z,72.20
2018-06-16T02:39:05.725Z,72.30
2018-06-16T02:40:05.905Z,72.20
2018-06-16T02:41:08.138Z,72.30
2018-06-16T02:42:06.073Z,72.30
2018-06-16T02:43:08.265Z,72.20
2018-06-16T02:44:05.720Z,72.20
2018-06-16T02:45:10.670Z,72.20
2018-06-16T02:46:08.708Z,72.20
2018-06-16T02:47:08.752Z,72.40
2018-06-16T02:48:06.223Z,72.20
2018-06-16T02:49:06.227Z,72.30
2018-06-16T02:50:13.923Z,72.40
2018-06-16T02:51:06.544Z,72.40
2018-06-16T02:52:08.039Z,72.80
2018-06-16T02:53:06.718Z,72.80
2018-06-16T02:54:06.835Z,72.80
2018-06-16T02:55:08.972Z,72.90
2018-06-16T02:56:05.700Z,73.00
2018-06-16T02:57:06.307Z,73.00
2018-06-16T02:58:06.128Z,73.10
2018-06-16T02:59:06.311Z,73.20
2018-06-16T03:00:06.127Z,73.10
2018-06-16T03:01:08.167Z,73.10
2018-06-16T03:02:10.757Z,73.10
2018-06-16T03:03:11.447Z,73.30
2018-06-16T03:04:09.096Z,73.10
2018-06-16T03:05:06.198Z,73.10
2018-06-16T03:06:10.961Z,73.70
2018-06-16T03:07:06.837Z,73.70
2018-06-16T03:08:06.407Z,73.60
2018-06-16T03:09:09.535Z,73.40
2018-06-16T03:10:08.614Z,73.50
2018-06-16T03:11:08.143Z,73.40
2018-06-16T03:12:08.171Z,73.40
2018-06-16T03:13:09.176Z,73.40
2018-06-16T03:14:05.766Z,73.40
2018-06-16T03:15:05.969Z,73.40
2018-06-16T03:16:10.654Z,73.40
2018-06-16T03:17:11.137Z,73.50
2018-06-16T03:18:05.750Z,73.50
2018-06-16T03:19:11.320Z,73.50
2018-06-16T03:20:05.972Z,73.60
2018-06-16T03:21:05.610Z,73.60
2018-06-16T03:22:08.138Z,73.80
2018-06-16T03:23:06.884Z,73.80
2018-06-16T03:24:10.730Z,73.80
2018-06-16T03:25:10.959Z,73.80
2018-06-16T03:26:13.709Z,74.00
2018-06-16T03:27:10.830Z,74.00
2018-06-16T03:28:08.953Z,74.10
2018-06-16T03:29:11.428Z,74.10
2018-06-16T03:30:06.582Z,74.20
2018-06-16T03:31:06.445Z,74.50
2018-06-16T03:32:05.822Z,74.90
2018-06-16T03:33:05.967Z,74.80
2018-06-16T03:34:10.941Z,74.80
2018-06-16T03:35:06.672Z,75.00
2018-06-16T03:36:08.839Z,75.00
2018-06-16T03:37:06.265Z,75.10
2018-06-16T03:38:08.399Z,75.00
2018-06-16T03:39:05.841Z,75.00
2018-06-16T03:40:05.871Z,75.00
2018-06-16T03:41:10.525Z,75.00
2018-06-16T03:42:06.188Z,75.00
2018-06-16T03:43:06.088Z,75.00
2018-06-16T03:44:06.956Z,75.00
2018-06-16T03:45:08.043Z,74.90
2018-06-16T03:46:05.497Z,74.90
2018-06-16T03:47:06.505Z,74.80
2018-06-16T03:48:08.894Z,74.80
2018-06-16T03:49:06.580Z,74.80
2018-06-16T03:50:06.450Z,74.90
2018-06-16T03:51:06.691Z,75.00
2018-06-16T03:52:09.044Z,75.10
2018-06-16T03:53:05.720Z,75.10
2018-06-16T03:54:10.761Z,75.00
2018-06-16T03:55:06.725Z,75.00
2018-06-16T03:56:11.335Z,75.00
2018-06-16T03:57:10.016Z,75.00
2018-06-16T03:58:05.592Z,75.00
2018-06-16T03:59:06.239Z,74.90
2018-06-16T04:00:05.797Z,74.90
2018-06-16T04:01:05.889Z,75.00
2018-06-16T04:02:09.019Z,75.00
2018-06-16T04:03:05.867Z,75.10
2018-06-16T04:04:05.575Z,75.10
2018-06-16T04:05:05.560Z,75.00
2018-06-16T04:06:08.157Z,75.20
2018-06-16T04:07:06.643Z,75.20
2018-06-16T04:08:08.774Z,75.20
2018-06-16T04:09:11.290Z,75.10
2018-06-16T04:10:06.091Z,75.10
2018-06-16T04:11:06.111Z,75.30
2018-06-16T04:12:06.075Z,75.20
2018-06-16T04:13:06.431Z,75.20
2018-06-16T04:14:08.636Z,75.60
2018-06-16T04:15:06.054Z,75.60
2018-06-16T04:16:05.621Z,75.60
2018-06-16T04:17:06.785Z,75.50
2018-06-16T04:18:06.306Z,75.50
2018-06-16T04:19:05.932Z,75.50
2018-06-16T04:20:05.667Z,75.60
2018-06-16T04:21:06.416Z,75.60
2018-06-16T04:22:10.947Z,75.60
2018-06-16T04:23:11.030Z,75.60
2018-06-16T04:24:06.518Z,75.60
2018-06-16T04:25:10.966Z,75.60
2018-06-16T04:26:06.515Z,75.60
2018-06-16T04:27:06.686Z,75.70
2018-06-16T04:28:06.379Z,75.70
2018-06-16T04:29:05.924Z,75.70
2018-06-16T04:30:08.309Z,75.60
2018-06-16T04:31:05.785Z,75.70
2018-06-16T04:32:08.393Z,75.60
2018-06-16T04:33:08.629Z,75.60
2018-06-16T04:34:09.058Z,75.60
2018-06-16T04:35:05.695Z,75.60
2018-06-16T04:36:06.397Z,75.50
2018-06-16T04:37:13.633Z,75.60
2018-06-16T04:38:06.060Z,75.60
2018-06-16T04:39:08.337Z,75.60
2018-06-16T04:40:05.958Z,75.60
2018-06-16T04:41:05.569Z,75.60
2018-06-16T04:42:06.144Z,75.80
2018-06-16T04:43:08.220Z,76.20
2018-06-16T04:44:06.020Z,76.20
2018-06-16T04:45:08.961Z,76.00
2018-06-16T04:46:06.415Z,76.00
2018-06-16T04:47:06.005Z,76.00
2018-06-16T04:48:08.144Z,75.80
2018-06-16T04:49:11.087Z,75.90
2018-06-16T04:50:06.097Z,75.80
2018-06-16T04:51:06.195Z,75.90
2018-06-16T04:52:05.546Z,75.80
2018-06-16T04:53:08.894Z,75.80
2018-06-16T04:54:11.655Z,75.70
2018-06-16T04:55:08.683Z,75.70
2018-06-16T04:56:08.772Z,75.60
2018-06-16T04:57:06.227Z,75.60
2018-06-16T04:58:06.597Z,75.70
2018-06-16T04:59:06.643Z,75.60
2018-06-16T05:00:10.890Z,75.60
2018-06-16T05:01:06.418Z,75.60
2018-06-16T05:02:06.267Z,75.70
2018-06-16T05:03:06.331Z,75.80
2018-06-16T05:04:08.988Z,75.80
2018-06-16T05:05:06.693Z,75.80
2018-06-16T05:06:05.992Z,75.70
2018-06-16T05:07:08.145Z,75.80
2018-06-16T05:08:06.754Z,75.80
2018-06-16T05:09:06.128Z,75.90
2018-06-16T05:10:06.132Z,75.90
2018-06-16T05:11:05.782Z,75.90
2018-06-16T05:12:06.584Z,75.90
2018-06-16T05:13:06.218Z,75.80
2018-06-16T05:14:05.763Z,75.90
2018-06-16T05:15:06.149Z,76.00
2018-06-16T05:16:07.043Z,75.90
2018-06-16T05:17:06.128Z,75.90
2018-06-16T05:18:06.581Z,75.90
2018-06-16T05:19:06.571Z,75.80
2018-06-16T05:20:06.247Z,75.80
2018-06-16T05:21:05.847Z,75.80
2018-06-16T05:22:06.532Z,63.00
2018-06-16T05:23:05.936Z,75.80
2018-06-16T05:24:08.699Z,75.80
2018-06-16T05:25:06.132Z,75.80
2018-06-16T05:26:08.277Z,75.90
2018-06-16T05:27:06.451Z,75.90
2018-06-16T05:28:06.066Z,76.00
2018-06-16T05:29:05.681Z,76.10
2018-06-16T05:30:05.662Z,76.10
2018-06-16T05:31:08.383Z,76.30
2018-06-16T05:32:10.780Z,76.30
2018-06-16T05:33:05.576Z,76.20
2018-06-16T05:34:05.696Z,76.20
2018-06-16T05:35:11.459Z,76.10
2018-06-16T05:36:08.497Z,76.10
2018-06-16T05:37:06.298Z,76.10
2018-06-16T05:38:05.504Z,76.00
2018-06-16T05:39:09.949Z,75.80
2018-06-16T05:40:06.409Z,75.80
2018-06-16T05:41:08.531Z,75.90
2018-06-16T05:42:11.209Z,76.00
2018-06-16T05:43:06.020Z,75.90
2018-06-16T05:44:06.320Z,75.90
2018-06-16T05:45:08.480Z,75.80
2018-06-16T05:46:08.405Z,75.80
2018-06-16T05:47:06.031Z,75.80
2018-06-16T05:48:05.779Z,75.60
2018-06-16T05:49:06.004Z,75.70
2018-06-16T05:50:10.671Z,75.70
2018-06-16T05:51:06.859Z,75.60
2018-06-16T05:52:06.125Z,75.40
2018-06-16T05:53:05.882Z,75.40
2018-06-16T05:54:14.109Z,75.30
2018-06-16T05:55:05.622Z,75.30
2018-06-16T05:56:06.562Z,75.20
2018-06-16T05:57:06.196Z,75.20
2018-06-16T05:58:05.849Z,75.10
2018-06-16T05:59:13.844Z,75.10
2018-06-16T06:00:11.486Z,75.00
2018-06-16T06:01:10.864Z,75.00
2018-06-16T06:02:06.086Z,75.00
2018-06-16T06:03:05.942Z,74.90
2018-06-16T06:04:10.767Z,74.90
2018-06-16T06:05:07.333Z,74.90
2018-06-16T06:06:05.806Z,75.00
2018-06-16T06:07:06.528Z,75.20
2018-06-16T06:08:08.803Z,75.10
2018-06-16T06:09:11.398Z,75.00
2018-06-16T06:10:07.950Z,74.90
2018-06-16T06:11:09.106Z,74.90
2018-06-16T06:12:05.468Z,74.70
2018-06-16T06:13:05.994Z,74.80
2018-06-16T06:14:05.574Z,74.80
2018-06-16T06:15:06.316Z,74.80
2018-06-16T06:16:11.255Z,74.70
2018-06-16T06:17:09.027Z,74.70
2018-06-16T06:18:05.465Z,74.70
2018-06-16T06:19:06.620Z,74.60
2018-06-16T06:20:06.153Z,74.50
2018-06-16T06:21:06.108Z,74.50
2018-06-16T06:22:10.850Z,74.40
2018-06-16T06:23:06.504Z,74.40
2018-06-16T06:24:06.250Z,74.50
2018-06-16T06:25:10.980Z,74.40
2018-06-16T06:26:06.367Z,74.40
2018-06-16T06:27:08.292Z,74.40
2018-06-16T06:28:08.500Z,74.40
2018-06-16T06:29:06.401Z,74.40
2018-06-16T06:30:08.550Z,74.40
2018-06-16T06:31:06.386Z,74.40
2018-06-16T06:32:08.408Z,74.00
2018-06-16T06:33:06.443Z,74.10
2018-06-16T06:34:12.206Z,73.90
2018-06-16T06:35:08.198Z,73.80
2018-06-16T06:36:11.013Z,73.60
2018-06-16T06:37:06.639Z,73.60
2018-06-16T06:38:06.452Z,73.50
2018-06-16T06:39:06.606Z,73.40
2018-06-16T06:40:05.877Z,73.20
2018-06-16T06:41:06.727Z,73.00
2018-06-16T06:42:10.673Z,72.70
2018-06-16T06:43:08.610Z,72.40
2018-06-16T06:44:08.526Z,72.30
2018-06-16T06:45:08.573Z,72.20
2018-06-16T06:46:10.980Z,71.90
2018-06-16T06:47:06.665Z,72.00
2018-06-16T06:48:11.287Z,71.70
2018-06-16T06:49:05.922Z,71.70
2018-06-16T06:50:05.755Z,71.60
2018-06-16T06:51:11.402Z,71.40
2018-06-16T06:52:09.419Z,71.00
2018-06-16T06:53:05.847Z,71.20
2018-06-16T06:54:11.460Z,70.70
2018-06-16T06:55:06.092Z,70.50
2018-06-16T06:56:10.918Z,70.50
2018-06-16T06:57:13.420Z,70.30
2018-06-16T06:58:08.523Z,70.20
2018-06-16T06:59:09.089Z,70.00
2018-06-16T07:00:05.471Z,70.00
2018-06-16T07:01:08.857Z,70.00
2018-06-16T07:02:07.743Z,70.00
2018-06-16T07:03:05.706Z,70.10
2018-06-16T07:04:11.315Z,69.80
2018-06-16T07:05:10.893Z,69.80
2018-06-16T07:06:08.854Z,69.70
2018-06-16T07:07:06.308Z,69.60
2018-06-16T07:08:08.660Z,69.40
2018-06-16T07:09:06.310Z,69.40
2018-06-16T07:10:11.023Z,69.20
2018-06-16T07:11:06.171Z,69.20
2018-06-16T07:12:10.976Z,68.80
2018-06-16T07:13:06.534Z,68.80
2018-06-16T07:14:06.949Z,68.60
2018-06-16T07:15:11.045Z,68.60
2018-06-16T07:16:06.146Z,68.60
2018-06-16T07:17:08.957Z,69.20
2018-06-16T07:18:08.992Z,68.80
2018-06-16T07:19:06.683Z,68.80
2018-06-16T07:20:10.452Z,68.40
2018-06-16T07:21:06.789Z,68.50
2018-06-16T07:22:11.542Z,68.50
2018-06-16T07:23:11.306Z,68.30
2018-06-16T07:24:11.899Z,68.30
2018-06-16T07:25:11.360Z,68.30
2018-06-16T07:26:08.373Z,68.20
2018-06-16T07:27:08.802Z,68.20
2018-06-16T07:28:10.055Z,68.20
2018-06-16T07:29:05.532Z,68.20
2018-06-16T07:30:06.553Z,68.00
2018-06-16T07:31:05.773Z,68.00
2018-06-16T07:32:08.471Z,67.30
2018-06-16T07:33:05.963Z,67.30
2018-06-16T07:34:11.233Z,67.40
2018-06-16T07:35:05.741Z,67.20
2018-06-16T07:36:06.581Z,67.20
2018-06-16T07:37:11.262Z,67.20
2018-06-16T07:38:08.509Z,66.70
2018-06-16T07:39:11.983Z,66.60
2018-06-16T07:40:06.478Z,66.40
2018-06-16T07:41:06.262Z,66.00
2018-06-16T07:42:10.852Z,66.00
2018-06-16T07:43:10.540Z,65.40
2018-06-16T07:44:06.513Z,65.40
2018-06-16T07:45:06.225Z,65.10
2018-06-16T07:46:10.897Z,65.00
2018-06-16T07:47:11.250Z,64.80
2018-06-16T07:48:08.351Z,64.60
2018-06-16T07:49:08.531Z,64.30
2018-06-16T07:50:06.491Z,64.30
2018-06-16T07:51:08.504Z,64.60
2018-06-16T07:52:08.372Z,64.30
2018-06-16T07:53:05.852Z,64.30
2018-06-16T07:54:06.209Z,64.20
2018-06-16T07:55:06.123Z,64.10
2018-06-16T07:56:05.841Z,64.20
2018-06-16T07:57:05.818Z,63.90
2018-06-16T07:58:05.671Z,63.80
2018-06-16T07:59:08.790Z,63.20
2018-06-16T08:00:06.015Z,63.10
2018-06-16T08:01:05.740Z,62.80
2018-06-16T08:02:06.349Z,62.70
2018-06-16T08:03:11.124Z,62.90
2018-06-16T08:04:05.517Z,62.40
2018-06-16T08:05:06.416Z,61.90
2018-06-16T08:06:06.099Z,61.80
2018-06-16T08:07:05.893Z,61.30
2018-06-16T08:08:05.716Z,60.90
2018-06-16T08:09:06.852Z,60.20
2018-06-16T08:10:05.995Z,59.80
2018-06-16T08:11:05.963Z,59.90
2018-06-16T08:12:06.292Z,60.30
2018-06-16T08:13:06.061Z,60.00
2018-06-16T08:14:08.140Z,60.20
2018-06-16T08:15:05.603Z,60.20
2018-06-16T08:16:05.669Z,59.50
2018-06-16T08:17:06.650Z,58.70
2018-06-16T08:18:06.700Z,58.50
2018-06-16T08:19:06.329Z,57.80
2018-06-16T08:20:09.033Z,57.30
2018-06-16T08:21:06.118Z,57.20
2018-06-16T08:22:05.824Z,56.60
2018-06-16T08:23:08.081Z,55.20
2018-06-16T08:24:05.600Z,55.30
2018-06-16T08:25:06.608Z,55.40
2018-06-16T08:26:06.289Z,55.20
2018-06-16T08:27:08.414Z,54.80
2018-06-16T08:28:06.213Z,54.80
2018-06-16T08:29:06.156Z,54.90
2018-06-16T08:30:06.921Z,55.10
2018-06-16T08:31:05.678Z,55.00
2018-06-16T08:32:08.737Z,54.50
2018-06-16T08:33:11.264Z,53.90
2018-06-16T08:34:05.728Z,53.90
2018-06-16T08:35:11.274Z,53.40
2018-06-16T08:36:08.400Z,53.10
2018-06-16T08:37:08.489Z,53.50
2018-06-16T08:38:06.279Z,53.40
2018-06-16T08:39:05.881Z,53.80
2018-06-16T08:40:06.429Z,54.40
2018-06-16T08:41:06.221Z,54.80
2018-06-16T08:42:06.349Z,54.80
2018-06-16T08:43:08.660Z,54.70
2018-06-16T08:44:06.213Z,54.80
2018-06-16T08:45:09.960Z,54.50
2018-06-16T08:46:06.619Z,54.50
2018-06-16T08:47:08.895Z,53.00
2018-06-16T08:48:08.908Z,53.20
2018-06-16T08:49:08.891Z,53.40
2018-06-16T08:50:06.339Z,53.50
2018-06-16T08:51:08.716Z,52.00
2018-06-16T08:52:06.266Z,52.00
2018-06-16T08:53:05.882Z,51.60
2018-06-16T08:54:05.906Z,51.30
2018-06-16T08:55:06.117Z,50.80
2018-06-16T08:56:06.077Z,49.70
2018-06-16T08:57:08.269Z,50.90
2018-06-16T08:58:05.842Z,50.90
2018-06-16T08:59:10.849Z,50.20
2018-06-16T09:00:06.478Z,50.20
2018-06-16T09:01:06.116Z,50.30
2018-06-16T09:02:08.790Z,49.30
2018-06-16T09:03:08.894Z,49.30
2018-06-16T09:04:11.488Z,49.90
2018-06-16T09:05:08.487Z,50.00
2018-06-16T09:06:13.451Z,50.30
2018-06-16T09:07:08.370Z,50.20
2018-06-16T09:08:10.945Z,50.20
2018-06-16T09:09:06.653Z,50.20
2018-06-16T09:10:06.841Z,49.50
2018-06-16T09:11:06.262Z,49.60
2018-06-16T09:12:05.833Z,49.70
2018-06-16T09:13:08.913Z,49.70
2018-06-16T09:14:06.682Z,49.70
2018-06-16T09:15:08.342Z,49.80
2018-06-16T09:16:08.256Z,48.70
2018-06-16T09:17:08.130Z,48.70
2018-06-16T09:18:08.112Z,48.50
2018-06-16T09:19:05.663Z,48.50
2018-06-16T09:20:05.658Z,48.70
2018-06-16T09:21:06.150Z,48.80
2018-06-16T09:22:08.723Z,47.40
2018-06-16T09:23:06.145Z,47.30
2018-06-16T09:24:06.089Z,47.40
2018-06-16T09:25:05.653Z,47.70
2018-06-16T09:26:08.843Z,47.40
2018-06-16T09:27:06.240Z,47.40
2018-06-16T09:28:06.462Z,47.80
2018-06-16T09:29:05.723Z,48.10
2018-06-16T09:30:06.308Z,48.10
2018-06-16T09:31:05.977Z,48.20
2018-06-16T09:32:06.114Z,47.60
2018-06-16T09:33:10.760Z,47.50
2018-06-16T09:34:06.343Z,47.50
2018-06-16T09:35:11.091Z,46.30
2018-06-16T09:36:06.232Z,46.70
2018-06-16T09:37:08.459Z,47.20
2018-06-16T09:38:06.383Z,47.20
2018-06-16T09:39:08.465Z,48.00
2018-06-16T09:40:07.002Z,48.00
2018-06-16T09:41:05.928Z,47.80
2018-06-16T09:42:08.212Z,47.20
2018-06-16T09:43:06.137Z,47.20
2018-06-16T09:44:05.787Z,46.70
2018-06-16T09:45:14.024Z,46.30
2018-06-16T09:46:05.568Z,46.30
2018-06-16T09:47:06.686Z,46.60
2018-06-16T09:48:11.651Z,46.90
2018-06-16T09:49:08.307Z,46.00
2018-06-16T09:50:08.275Z,45.30
2018-06-16T09:51:09.259Z,45.20
2018-06-16T09:52:05.640Z,45.20
2018-06-16T09:53:05.831Z,44.70
2018-06-16T09:54:06.482Z,44.50
2018-06-16T09:55:06.456Z,44.40
2018-06-16T09:56:06.231Z,44.70
2018-06-16T09:57:06.372Z,44.30
2018-06-16T09:58:08.612Z,43.80
2018-06-16T09:59:08.039Z,43.20
2018-06-16T10:00:10.671Z,41.70
2018-06-16T10:01:08.766Z,41.70
2018-06-16T10:02:09.709Z,42.20
2018-06-16T10:03:06.252Z,42.20
2018-06-16T10:04:06.308Z,41.10
2018-06-16T10:05:06.601Z,40.90
2018-06-16T10:06:11.416Z,41.80
2018-06-16T10:07:06.303Z,42.10
2018-06-16T10:08:05.977Z,42.50
2018-06-16T10:09:06.028Z,42.30
2018-06-16T10:10:10.919Z,41.70
2018-06-16T10:11:06.349Z,41.70
2018-06-16T10:12:05.972Z,41.80
2018-06-16T10:13:08.097Z,40.50
2018-06-16T10:14:05.595Z,40.40
2018-06-16T10:15:06.767Z,39.90
2018-06-16T10:16:05.854Z,40.20
2018-06-16T10:17:05.775Z,40.80
2018-06-16T10:18:06.422Z,39.50
2018-06-16T10:19:06.177Z,39.90
2018-06-16T10:20:08.371Z,40.10
2018-06-16T10:21:07.000Z,40.00
2018-06-16T10:22:06.050Z,40.40
2018-06-16T10:23:08.157Z,40.60
2018-06-16T10:24:05.728Z,40.60
2018-06-16T10:25:05.805Z,39.90
2018-06-16T10:26:06.934Z,39.20
2018-06-16T10:27:08.365Z,39.40
2018-06-16T10:28:10.827Z,39.40
2018-06-16T10:29:08.919Z,39.20
2018-06-16T10:30:06.844Z,39.20
2018-06-16T10:31:08.933Z,39.20
2018-06-16T10:32:06.385Z,39.20
2018-06-16T10:33:08.743Z,40.40
2018-06-16T10:34:08.035Z,39.80
2018-06-16T10:35:06.289Z,39.80
2018-06-16T10:36:10.703Z,40.00
2018-06-16T10:37:06.418Z,40.50
2018-06-16T10:38:13.700Z,40.00
2018-06-16T10:39:06.156Z,40.00
2018-06-16T10:40:05.841Z,38.80
2018-06-16T10:41:08.903Z,39.60
2018-06-16T10:42:11.278Z,39.60
2018-06-16T10:43:05.753Z,39.80
2018-06-16T10:44:05.732Z,40.00
2018-06-16T10:45:05.765Z,40.00
2018-06-16T10:46:11.478Z,40.10
2018-06-16T10:47:05.998Z,40.10
2018-06-16T10:48:05.801Z,40.10
2018-06-16T10:49:09.101Z,40.20
2018-06-16T10:50:10.618Z,40.80
2018-06-16T10:51:06.175Z,40.80
2018-06-16T10:52:08.460Z,41.20
2018-06-16T10:53:06.594Z,41.20
2018-06-16T10:54:06.200Z,41.40
2018-06-16T10:55:05.896Z,41.90
2018-06-16T10:56:05.690Z,41.90
2018-06-16T10:57:06.302Z,41.70
2018-06-16T10:58:08.459Z,41.90
2018-06-16T10:59:08.530Z,42.20
2018-06-16T11:00:08.522Z,42.30
2018-06-16T11:01:06.450Z,42.40
2018-06-16T11:02:06.607Z,42.40
2018-06-16T11:03:08.421Z,41.90
2018-06-16T11:04:06.065Z,41.80
2018-06-16T11:05:08.316Z,42.20
2018-06-16T11:06:06.066Z,42.20
2018-06-16T11:07:05.729Z,42.30
2018-06-16T11:08:08.855Z,42.20
2018-06-16T11:09:06.280Z,42.20
2018-06-16T11:10:11.389Z,42.70
2018-06-16T11:11:08.280Z,42.80
2018-06-16T11:12:08.305Z,42.70
2018-06-16T11:13:08.637Z,42.50
2018-06-16T11:14:06.166Z,42.50
2018-06-16T11:15:05.889Z,42.20
2018-06-16T11:16:05.790Z,42.10
2018-06-16T11:17:06.339Z,42.60
2018-06-16T11:18:09.038Z,42.50
2018-06-16T11:19:16.212Z,42.50
2018-06-16T11:20:05.789Z,42.60
2018-06-16T11:21:08.366Z,42.80
2018-06-16T11:22:05.716Z,42.80
2018-06-16T11:23:10.793Z,42.50
2018-06-16T11:24:08.895Z,42.10
2018-06-16T11:25:06.771Z,42.10
2018-06-16T11:26:08.934Z,42.60
2018-06-16T11:27:16.192Z,42.60
2018-06-16T11:28:10.590Z,41.90
2018-06-16T11:29:08.558Z,41.80
2018-06-16T11:30:06.299Z,41.80
2018-06-16T11:31:06.506Z,41.50
2018-06-16T11:32:08.667Z,41.40
2018-06-16T11:33:06.130Z,41.50
2018-06-16T11:34:08.382Z,41.20
2018-06-16T11:35:08.523Z,41.40
2018-06-16T11:36:05.986Z,41.40
2018-06-16T11:37:11.215Z,41.50
2018-06-16T11:38:08.239Z,41.60
2018-06-16T11:39:09.015Z,41.80
2018-06-16T11:40:06.600Z,41.80
2018-06-16T11:41:11.149Z,41.50
2018-06-16T11:42:06.008Z,41.20
2018-06-16T11:43:05.665Z,41.40
2018-06-16T11:44:10.913Z,41.40
2018-06-16T11:45:06.351Z,41.40
2018-06-16T11:46:10.134Z,40.70
2018-06-16T11:47:08.224Z,41.20
2018-06-16T11:48:05.700Z,41.20
2018-06-16T11:49:06.470Z,41.30
2018-06-16T11:50:06.230Z,41.60
2018-06-16T11:51:06.130Z,41.60
2018-06-16T11:52:06.068Z,41.60
2018-06-16T11:53:05.893Z,41.50
2018-06-16T11:54:06.313Z,41.10
2018-06-16T11:55:08.464Z,41.00
2018-06-16T11:56:08.794Z,40.70
2018-06-16T11:57:11.464Z,40.70
2018-06-16T11:58:05.913Z,40.60
2018-06-16T11:59:13.424Z,40.40
2018-06-16T12:00:08.444Z,40.70
2018-06-16T12:01:06.108Z,40.70
2018-06-16T12:02:05.739Z,41.30
2018-06-16T12:03:06.448Z,41.00
2018-06-16T12:04:06.198Z,40.80
2018-06-16T12:05:06.151Z,40.70
2018-06-16T12:06:06.562Z,40.20
2018-06-16T12:07:06.261Z,39.80
2018-06-16T12:08:06.550Z,39.30
2018-06-16T12:09:08.817Z,39.30
2018-06-16T12:10:10.820Z,39.30
2018-06-16T12:11:06.292Z,39.60
2018-06-16T12:12:06.211Z,39.70
2018-06-16T12:13:08.301Z,39.80
2018-06-16T12:14:09.111Z,39.40
2018-06-16T12:15:05.590Z,39.40
2018-06-16T12:16:11.745Z,39.40
2018-06-16T12:17:06.352Z,39.20
2018-06-16T12:18:05.833Z,39.10
2018-06-16T12:19:05.684Z,39.30
2018-06-16T12:20:06.297Z,38.90
2018-06-16T12:21:06.222Z,38.70
2018-06-16T12:22:05.921Z,38.10
2018-06-16T12:23:08.083Z,36.80
2018-06-16T12:24:10.762Z,37.10
2018-06-16T12:25:06.213Z,37.10
2018-06-16T12:26:05.787Z,37.00
2018-06-16T12:27:06.663Z,36.90
2018-06-16T12:28:06.576Z,36.60
2018-06-16T12:29:06.015Z,36.70
2018-06-16T12:30:11.049Z,36.50
2018-06-16T12:31:08.961Z,37.40
2018-06-16T12:32:06.472Z,37.40
2018-06-16T12:33:08.688Z,37.30
2018-06-16T12:34:08.742Z,36.90
2018-06-16T12:35:11.358Z,37.00
2018-06-16T12:36:11.076Z,37.30
2018-06-16T12:37:05.595Z,37.30
2018-06-16T12:38:10.925Z,37.30
2018-06-16T12:39:11.016Z,37.10
2018-06-16T12:40:06.482Z,37.20
2018-06-16T12:41:05.595Z,37.30
2018-06-16T12:42:08.069Z,36.70
2018-06-16T12:43:10.575Z,36.30
2018-06-16T12:44:05.998Z,36.30
2018-06-16T12:45:07.009Z,36.70
2018-06-16T12:46:07.941Z,36.30
2018-06-16T12:47:06.535Z,36.30
2018-06-16T12:48:06.311Z,35.80
2018-06-16T12:49:06.406Z,36.00
2018-06-16T12:50:09.032Z,36.30
2018-06-16T12:51:11.685Z,36.10
2018-06-16T12:52:08.685Z,35.90